Time;durP1;ratioP1;P1;durP2;ratioP2;P2;SDS_P1;SDS_P2;PMS_P1;PMS_P2;Temp;Humidity;BMP_temperature;BMP_pressure;BME280_temperature;BME280_humidity;BME280_pressure;Samples;Min_cycle;Max_cycle;Signal;HPM_P1;HPM_P2
2021/03/07 00:04:04;;;;;;;6.12;5.47;;;;;;;-1.33;57.09;101062.02;1688213;85;21140;-92
2021/03/07 00:06:46;;;;;;;8.67;5.90;;;;;;;-1.35;57.17;101050.82;1677555;85;21757;-92
2021/03/07 00:09:53;;;;;;;7.07;4.33;;;;;;;-1.36;57.17;101047.34;1670436;85;21192;-91
2021/03/07 00:12:49;;;;;;;10.60;5.47;;;;;;;-1.38;57.46;101049.21;1663598;85;21204;-92
2021/03/07 00:15:28;;;;;;;10.03;5.77;;;;;;;-1.40;57.38;101036.22;1660352;85;21496;-92
2021/03/07 00:17:58;;;;;;;7.80;5.63;;;;;;;-1.41;57.56;101029.33;1658705;85;21169;-91
2021/03/07 00:20:46;;;;;;;6.90;4.90;;;;;;;-1.42;57.68;101030.25;1661228;85;21291;-91
2021/03/07 00:23:29;;;;;;;6.10;5.20;;;;;;;-1.41;57.58;101028.02;1634722;85;21393;-91
2021/03/07 00:26:17;;;;;;;8.57;5.83;;;;;;;-1.40;57.57;101029.69;1672892;86;21203;-93
2021/03/07 00:28:51;;;;;;;7.53;5.57;;;;;;;-1.43;57.61;101021.19;1674246;85;21194;-93
2021/03/07 00:31:53;;;;;;;10.10;5.97;;;;;;;-2.70;57.68;100809.83;1655034;85;21218;-92
2021/03/07 00:34:36;;;;;;;8.03;5.00;;;;;;;-1.41;57.74;101013.64;1673500;83;21116;-92
2021/03/07 00:37:32;;;;;;;6.73;5.33;;;;;;;-1.43;57.84;101007.66;1694106;83;21317;-92
2021/03/07 00:40:17;;;;;;;7.97;5.40;;;;;;;-1.47;57.89;100994.41;1655293;85;21303;-89
2021/03/07 00:42:58;;;;;;;;;;;;;;;;;;;;;
2021/03/07 00:45:45;;;;;;;7.45;6.75;;;;;;;-1.42;57.77;100977.95;1754253;78;28470;-90
2021/03/07 00:48:16;;;;;;;7.50;6.03;;;;;;;-1.15;57.26;100975.84;1720135;81;21148;-92
2021/03/07 00:50:56;;;;;;;7.47;4.80;;;;;;;-0.93;56.54;100975.80;1726580;80;21142;-92
2021/03/07 00:53:35;;;;;;;6.70;5.53;;;;;;;-1.02;56.68;100966.75;1716728;82;21352;-91
2021/03/07 00:56:11;;;;;;;7.20;5.67;;;;;;;-1.11;56.83;100956.42;1738748;81;21021;-90
2021/03/07 00:58:42;;;;;;;5.17;4.67;;;;;;;-1.19;56.80;100959.52;1724206;82;21227;-92
2021/03/07 01:01:12;;;;;;;7.27;4.97;;;;;;;-1.12;56.62;100956.03;1701273;83;21229;-91
2021/03/07 01:03:44;;;;;;;5.40;4.43;;;;;;;-1.11;56.48;100949.02;1661047;84;21334;-90
2021/03/07 01:06:11;;;;;;;5.93;4.47;;;;;;;-1.10;56.67;100950.23;1697643;83;21210;-92
2021/03/07 01:08:41;;;;;;;6.43;4.30;;;;;;;-1.14;56.76;100940.91;1667243;82;21129;-90
2021/03/07 01:11:10;;;;;;;7.40;5.60;;;;;;;-1.18;56.88;100939.43;1638987;83;21165;-90
2021/03/07 01:14:00;;;;;;;8.57;5.53;;;;;;;-1.23;57.17;100941.02;1621735;84;22037;-90
2021/03/07 01:16:32;;;;;;;7.33;5.23;;;;;;;-1.33;57.58;100928.16;1658305;83;21219;-91
2021/03/07 01:19:15;;;;;;;6.33;5.43;;;;;;;-1.44;57.94;100918.84;1668637;85;21346;-90
2021/03/07 01:21:48;;;;;;;6.70;5.07;;;;;;;-1.49;58.08;100923.04;1639701;85;21540;-90
2021/03/07 01:24:17;;;;;;;6.77;5.13;;;;;;;-1.55;58.41;100917.38;1659229;83;21577;-91
2021/03/07 01:26:45;;;;;;;8.13;5.77;;;;;;;-1.58;58.73;100909.27;1657151;84;21628;-92
2021/03/07 01:29:13;;;;;;;6.50;4.97;;;;;;;-1.63;58.97;100904.30;1626947;86;21281;-92
2021/03/07 01:31:43;;;;;;;6.63;5.90;;;;;;;-1.66;59.21;100911.50;1652334;84;21342;-92
2021/03/07 01:34:14;;;;;;;6.97;4.87;;;;;;;-1.72;59.72;100891.81;1681759;82;21710;-92
2021/03/07 01:36:45;;;;;;;9.47;5.83;;;;;;;-1.77;59.78;100897.81;1684485;84;21208;-92
2021/03/07 01:39:15;;;;;;;8.17;5.53;;;;;;;-1.76;59.69;100890.33;1688289;83;21212;-92
2021/03/07 01:41:45;;;;;;;10.40;6.13;;;;;;;-1.79;60.12;100896.59;1694148;82;21184;-92
2021/03/07 01:44:27;;;;;;;8.40;5.97;;;;;;;-1.77;59.77;100888.66;1696053;80;21160;-91
2021/03/07 01:47:07;;;;;;;5.43;3.97;;;;;;;-1.79;59.84;100891.36;1727288;81;21287;-93
2021/03/07 01:49:43;;;;;;;9.83;5.80;;;;;;;-1.79;60.11;100888.75;1693010;83;21189;-91
2021/03/07 01:52:12;;;;;;;6.83;6.13;;;;;;;-1.79;60.07;100886.14;1679192;84;21267;-92
2021/03/07 01:54:43;;;;;;;8.13;5.07;;;;;;;-1.82;60.07;100887.63;1709584;82;21136;-92
2021/03/07 01:57:19;;;;;;;8.43;5.60;;;;;;;-1.83;60.36;100880.73;1712972;82;21140;-91
2021/03/07 01:59:51;;;;;;;8.17;5.50;;;;;;;-1.81;60.04;100874.08;1699233;82;21172;-90
2021/03/07 02:02:28;;;;;;;8.77;6.17;;;;;;;-1.81;60.20;100876.70;1690254;81;21208;-92
2021/03/07 02:05:12;;;;;;;9.50;4.83;;;;;;;-1.77;60.01;100859.44;1697378;81;21131;-93
2021/03/07 02:07:41;;;;;;;7.20;4.40;;;;;;;-1.72;60.00;100864.84;1711259;83;21164;-90
2021/03/07 02:10:26;;;;;;;5.17;4.67;;;;;;;-1.71;59.93;100850.81;1705388;83;21242;-91
2021/03/07 02:13:20;;;;;;;6.53;4.90;;;;;;;-1.72;59.88;100851.30;1693715;82;21109;-91
2021/03/07 02:15:55;;;;;;;6.77;4.87;;;;;;;-1.73;59.93;100846.16;1705663;82;21142;-90
2021/03/07 02:18:51;;;;;;;11.40;5.97;;;;;;;-1.73;60.05;100852.69;1710119;82;21374;-91
2021/03/07 02:21:24;;;;;;;8.40;4.73;;;;;;;-1.76;60.14;100846.72;1680613;79;21220;-92
2021/03/07 02:24:07;;;;;;;8.20;4.65;;;;;;;-1.80;60.15;100840.02;1706761;82;21127;-91
2021/03/07 02:26:48;;;;;;;5.77;4.27;;;;;;;-1.78;60.17;100844.67;1686927;82;21199;-93
2021/03/07 02:29:22;;;;;;;8.13;4.00;;;;;;;-1.76;60.35;100831.05;1696549;82;21334;-93
2021/03/07 02:31:59;;;;;;;6.57;4.77;;;;;;;-1.76;60.17;100829.73;1685853;82;21209;-91
2021/03/07 02:34:53;;;;;;;7.10;4.55;;;;;;;-1.73;59.99;100826.55;1671729;82;22120;-93
2021/03/07 02:37:25;;;;;;;7.17;5.97;;;;;;;-1.72;59.96;100824.33;1726208;82;21220;-92
2021/03/07 02:39:55;;;;;;;8.47;5.07;;;;;;;-1.67;59.90;100803.97;1734111;81;21188;-92
2021/03/07 02:42:26;;;;;;;5.37;4.07;;;;;;;-1.66;59.74;100799.09;1742925;81;21200;-92
2021/03/07 02:45:06;;;;;;;7.13;4.80;;;;;;;-1.68;59.77;100795.27;1734152;78;21144;-89
2021/03/07 02:47:37;;;;;;;;;;;;;;;-1.66;59.72;100793.39;1716275;82;21263;-92
2021/03/07 02:50:14;;;;;;;6.60;4.70;;;;;;;-2.47;59.67;100658.34;1742544;78;20197;-92
2021/03/07 02:52:56;;;;;;;5.70;4.00;;;;;;;-1.71;59.52;100782.42;1713593;83;21286;-92
2021/03/07 02:55:29;;;;;;;7.63;5.10;;;;;;;-2.94;59.33;100582.56;1688032;84;21160;-91
2021/03/07 02:58:10;;;;;;;8.47;4.67;;;;;;;-1.68;59.18;100776.14;1706822;81;21175;-93
2021/03/07 03:00:39;;;;;;;6.37;4.63;;;;;;;-1.69;58.98;100774.01;1692489;80;21069;-91
2021/03/07 03:03:12;;;;;;;5.97;3.93;;;;;;;-1.63;58.71;100772.30;1646246;84;21156;-92
2021/03/07 03:05:49;;;;;;;6.60;5.07;;;;;;;-1.62;58.58;100769.20;1643641;87;21325;-92
2021/03/07 03:08:19;;;;;;;6.87;5.07;;;;;;;-1.61;58.58;100761.74;1648456;85;21249;-90
2021/03/07 03:10:51;;;;;;;8.00;4.90;;;;;;;-1.63;58.61;100752.69;1645491;85;21230;-93
2021/03/07 03:13:25;;;;;;;7.03;5.13;;;;;;;-1.60;58.49;100753.81;1654010;84;21107;-92
2021/03/07 03:16:34;;;;;;;3.90;3.53;;;;;;;-1.64;58.56;100756.70;1628238;86;21176;-91
2021/03/07 03:19:08;;;;;;;7.87;4.90;;;;;;;-1.66;58.43;100748.95;1633685;87;22025;-91
2021/03/07 03:21:38;;;;;;;5.10;4.67;;;;;;;-1.66;58.37;100731.97;1651677;86;21212;-91
2021/03/07 03:24:07;;;;;;;6.60;5.50;;;;;;;-1.68;58.33;100735.16;1634362;87;21132;-90
2021/03/07 03:26:36;;;;;;;7.40;3.93;;;;;;;-1.65;58.22;100727.59;1612470;88;21188;-90
2021/03/07 03:29:05;;;;;;;6.10;3.70;;;;;;;-1.66;58.13;100726.73;1635406;86;21182;-91
2021/03/07 03:31:34;;;;;;;9.30;4.73;;;;;;;-1.79;57.88;100690.13;1608805;87;21862;-94
2021/03/07 03:34:07;;;;;;;7.07;5.07;;;;;;;-1.98;57.77;100650.45;1656284;84;21156;-92
2021/03/07 03:36:38;;;;;;;6.40;4.90;;;;;;;-1.64;57.58;100701.37;1643957;86;21208;-92
2021/03/07 03:39:23;;;;;;;7.87;4.67;;;;;;;-1.59;57.44;100706.28;1662211;85;21161;-93
2021/03/07 03:42:06;;;;;;;6.77;4.80;;;;;;;-1.58;57.51;100683.96;1649914;86;21813;-94
2021/03/07 03:44:39;;;;;;;6.20;4.57;;;;;;;-1.63;57.48;100678.19;1653523;83;21074;-92
2021/03/07 03:47:36;;;;;;;8.00;4.73;;;;;;;-1.59;57.44;100676.22;1693656;81;21266;-91
2021/03/07 03:50:07;;;;;;;6.70;5.33;;;;;;;-1.59;57.49;100680.96;1693556;82;21131;-88
2021/03/07 03:52:42;;;;;;;;;;;;;;;-1.56;57.44;100677.33;1644439;84;21455;-93
2021/03/07 03:55:25;;;;;;;5.77;5.13;;;;;;;-1.62;57.54;100660.72;1655259;84;20155;-91
2021/03/07 03:58:04;;;;;;;7.00;4.97;;;;;;;-1.60;57.42;100660.15;1695978;84;21395;-91
2021/03/07 04:00:44;;;;;;;7.80;5.17;;;;;;;-1.59;57.42;100669.68;1672917;84;21429;-90
2021/03/07 04:03:21;;;;;;;5.83;5.27;;;;;;;-1.58;57.40;100659.12;1651247;85;21171;-90
2021/03/07 04:05:51;;;;;;;8.47;6.67;;;;;;;-1.54;57.47;100656.28;1677369;83;21218;-93
2021/03/07 04:08:33;;;;;;;7.33;5.20;;;;;;;-1.53;57.42;100638.38;1674071;84;21156;-92
2021/03/07 04:11:02;;;;;;;6.27;4.60;;;;;;;-1.51;57.48;100644.33;1651918;85;21212;-91
2021/03/07 04:13:33;;;;;;;6.17;5.40;;;;;;;-2.96;57.33;100400.11;1673960;84;21236;-91
2021/03/07 04:16:05;;;;;;;8.73;5.80;;;;;;;-1.49;57.19;100614.52;1658257;84;21172;-93
2021/03/07 04:18:38;;;;;;;7.27;5.23;;;;;;;-1.45;57.14;100608.61;1648381;81;21348;-83
2021/03/07 04:21:28;;;;;;;8.45;5.47;;;;;;;-1.46;57.26;100615.63;1675355;81;21355;-91
2021/03/07 04:23:57;;;;;;;7.03;6.07;;;;;;;-1.41;57.21;100603.09;1655557;83;21154;-91
2021/03/07 04:26:27;;;;;;;6.77;5.33;;;;;;;-1.39;57.09;100604.30;1623433;88;21237;-89
2021/03/07 04:29:25;;;;;;;7.40;5.70;;;;;;;-1.34;57.01;100592.20;1647465;85;21717;-91
2021/03/07 04:31:53;;;;;;;10.83;6.33;;;;;;;-1.35;57.01;100586.14;1670777;84;21207;-94
2021/03/07 04:34:23;;;;;;;7.23;5.90;;;;;;;-1.39;57.14;100586.81;1638234;85;21263;-93
2021/03/07 04:36:59;;;;;;;10.13;6.63;;;;;;;-1.35;57.05;100590.54;1676389;85;21171;-94
2021/03/07 04:39:31;;;;;;;8.00;6.17;;;;;;;-1.38;57.17;100577.19;1681183;85;21404;-92
2021/03/07 04:42:09;;;;;;;6.63;5.30;;;;;;;-1.35;57.05;100568.31;1665191;85;21175;-91
2021/03/07 04:44:51;;;;;;;7.60;5.93;;;;;;;-1.33;56.92;100572.96;1664755;84;21055;-91
2021/03/07 04:47:50;;;;;;;9.43;6.00;;;;;;;-1.33;57.00;100576.89;1646961;83;21219;-92
2021/03/07 04:51:00;;;;;;;11.33;7.37;;;;;;;-1.33;57.22;100569.04;1646747;85;21278;-92
2021/03/07 04:53:41;;;;;;;9.27;6.57;;;;;;;-1.31;57.02;100566.67;1675494;85;21546;-91
2021/03/07 04:56:22;;;;;;;7.67;5.77;;;;;;;-1.31;57.09;100565.36;1677493;84;21141;-92
2021/03/07 04:59:32;;;;;;;13.60;7.53;;;;;;;-1.30;57.07;100559.66;1667686;84;21325;-88
2021/03/07 05:02:06;;;;;;;11.73;7.20;;;;;;;-1.29;57.22;100559.55;1623872;87;21069;-92
2021/03/07 05:04:39;;;;;;;10.03;6.80;;;;;;;-1.30;57.15;100536.12;1645114;86;21278;-91
2021/03/07 05:07:10;;;;;;;7.73;6.37;;;;;;;-1.28;57.14;100547.30;1637850;86;21214;-92
2021/03/07 05:09:56;;;;;;;10.00;7.10;;;;;;;-1.21;57.05;100548.08;1645474;85;21175;-93
2021/03/07 05:12:39;;;;;;;8.30;7.40;;;;;;;-1.20;57.09;100545.84;1637833;84;21065;-91
2021/03/07 05:15:17;;;;;;;9.97;6.47;;;;;;;-1.15;57.10;100549.42;1668355;81;21387;-92
2021/03/07 05:17:46;;;;;;;9.63;6.63;;;;;;;-1.11;57.08;100536.97;1653164;83;21172;-90
2021/03/07 05:20:36;;;;;;;11.50;8.10;;;;;;;-1.04;56.93;100535.59;1660444;84;21213;-92
2021/03/07 05:23:42;;;;;;;10.23;6.73;;;;;;;-1.00;56.70;100532.67;1656604;81;21185;-92
2021/03/07 05:30:10;;;;;;;12.60;6.90;;;;;;;-0.93;56.70;100520.45;1645383;83;21176;-94
2021/03/07 05:33:17;;;;;;;11.80;7.17;;;;;;;-0.91;56.71;100520.69;1684980;83;21165;-94
2021/03/07 05:36:32;;;;;;;12.93;8.07;;;;;;;-0.79;56.47;100513.77;1625321;87;21823;-95
2021/03/07 05:39:28;;;;;;;12.90;8.13;;;;;;;-0.72;56.40;100511.04;1612737;88;21225;-94
2021/03/07 05:42:12;;;;;;;15.07;8.93;;;;;;;-0.66;56.27;100510.62;1612813;85;21367;-92
2021/03/07 05:44:45;;;;;;;11.43;8.53;;;;;;;-0.56;56.07;100512.56;1621101;86;21148;-91
2021/03/07 05:47:43;;;;;;;10.63;8.23;;;;;;;-0.51;55.84;100507.36;1625142;86;21148;-92
2021/03/07 05:50:27;;;;;;;12.17;9.73;;;;;;;-0.43;55.55;100497.63;1641520;86;21212;-92
2021/03/07 05:53:02;;;;;;;12.27;8.43;;;;;;;-0.31;55.33;100491.45;1641404;82;21152;-90
2021/03/07 05:55:56;;;;;;;11.13;8.17;;;;;;;-0.15;55.07;100496.85;1628284;83;21082;-91
2021/03/07 05:58:29;;;;;;;14.13;8.70;;;;;;;-0.03;54.69;100484.16;1580020;86;21200;-90
2021/03/07 06:01:33;;;;;;;14.83;9.10;;;;;;;-0.21;54.38;100447.92;1545969;90;21291;-93
2021/03/07 06:04:19;;;;;;;14.25;9.43;;;;;;;0.18;54.05;100472.02;1549011;90;21417;-91
2021/03/07 06:06:51;;;;;;;13.30;9.07;;;;;;;0.31;53.65;100484.19;1557518;90;21197;-90
2021/03/07 06:09:30;;;;;;;11.43;8.23;;;;;;;0.49;53.63;100479.29;1598503;88;21671;-90
2021/03/07 06:12:06;;;;;;;14.60;9.20;;;;;;;0.63;53.05;100467.25;1601056;88;21123;-89
2021/03/07 06:14:34;;;;;;;9.40;7.57;;;;;;;0.71;52.34;100470.58;1624187;87;21219;-89
2021/03/07 06:17:15;;;;;;;10.97;9.00;;;;;;;0.74;52.41;100467.23;1597386;89;21451;-89
2021/03/07 06:20:03;;;;;;;11.40;8.93;;;;;;;0.88;52.09;100462.67;1599737;88;21384;-90
2021/03/07 06:22:46;;;;;;;11.83;8.90;;;;;;;1.05;52.01;100456.90;1583761;88;21111;-91
2021/03/07 06:25:15;;;;;;;14.80;9.50;;;;;;;1.28;51.14;100453.74;1576672;88;21205;-93
2021/03/07 06:27:46;;;;;;;11.03;8.70;;;;;;;1.38;50.86;100459.06;1599142;87;21164;-88
2021/03/07 06:30:29;;;;;;;13.47;9.23;;;;;;;0.97;50.78;100370.91;1559351;89;21163;-88
2021/03/07 06:33:37;;;;;;;13.90;9.63;;;;;;;1.65;50.54;100449.38;1807620;77;23101;-89
2021/03/07 06:36:19;;;;;;;14.53;9.90;;;;;;;1.66;50.21;100453.68;1723452;82;21891;-89
2021/03/07 06:39:04;;;;;;;14.67;10.77;;;;;;;1.66;50.35;100440.55;1771302;80;22521;-90
2021/03/07 06:42:09;;;;;;;17.53;10.60;;;;;;;1.50;50.43;100431.77;1774614;79;21109;-90
2021/03/07 06:45:17;;;;;;;14.20;9.77;;;;;;;0.17;50.99;100261.97;1747121;80;21324;-92
2021/03/07 06:47:56;;;;;;;18.17;10.53;;;;;;;1.27;51.20;100436.80;1737300;82;21887;-90
2021/03/07 06:51:07;;;;;;;15.15;10.05;;;;;;;1.22;51.33;100436.33;1701299;82;21128;-91
2021/03/07 06:54:25;;;;;;;12.67;9.50;;;;;;;1.25;51.44;100432.15;1708671;83;21211;-92
2021/03/07 06:57:37;;;;;;;15.33;10.13;;;;;;;1.30;51.32;100436.52;1698005;83;21321;-90
2021/03/07 07:00:36;;;;;;;13.73;9.67;;;;;;;1.36;51.27;100428.16;1695799;84;21149;-91
2021/03/07 07:03:21;;;;;;;16.17;9.97;;;;;;;1.46;51.25;100421.17;1655977;84;21183;-92
2021/03/07 07:05:56;;;;;;;14.27;9.73;;;;;;;1.57;50.91;100422.91;1692207;84;21339;-91
2021/03/07 07:08:47;;;;;;;14.63;9.97;;;;;;;1.70;50.61;100420.09;1693877;84;21811;-88
2021/03/07 07:11:20;;;;;;;15.30;10.20;;;;;;;1.80;50.61;100400.44;1692598;84;21205;-95
2021/03/07 07:13:56;;;;;;;17.00;10.53;;;;;;;1.92;50.33;100390.18;1659800;84;21269;-88
2021/03/07 07:16:40;;;;;;;11.87;9.47;;;;;;;1.99;50.00;100396.58;1694458;81;21168;-87
2021/03/07 07:19:16;;;;;;;15.27;11.10;;;;;;;2.06;49.97;100380.64;1687063;82;21314;-91
2021/03/07 07:22:32;;;;;;;12.97;9.37;;;;;;;2.07;49.90;100382.78;1693628;81;21237;-90
2021/03/07 07:25:39;;;;;;;16.60;10.57;;;;;;;2.20;49.56;100364.97;1662669;84;21156;-89
2021/03/07 07:32:37;;;;;;;12.57;9.10;;;;;;;2.34;49.58;100370.36;1641164;82;21207;-91
2021/03/07 07:59:51;;;;;;;13.63;9.87;;;;;;;4.24;46.49;100311.72;1794455;77;22965;-89
2021/03/07 08:02:51;;;;;;;19.30;9.60;;;;;;;4.24;45.74;100306.44;1783718;78;21129;-87
2021/03/07 08:05:38;;;;;;;13.37;9.07;;;;;;;4.02;46.06;100304.53;1814675;77;21085;-88
2021/03/07 08:08:39;;;;;;;14.83;10.25;;;;;;;3.84;46.03;100290.45;1747672;79;21147;-90
2021/03/07 08:11:29;;;;;;;11.30;8.53;;;;;;;3.61;46.50;100285.55;1778875;78;22378;-90
2021/03/07 08:14:10;;;;;;;20.77;8.63;;;;;;;3.43;46.62;100285.48;1769976;78;21144;-91
2021/03/07 08:16:44;;;;;;;13.07;8.37;;;;;;;3.12;47.12;100284.84;1806671;77;21213;-90
2021/03/07 08:19:43;;;;;;;12.23;9.00;;;;;;;2.96;47.62;100276.23;1794887;77;21124;-91
2021/03/07 08:22:16;;;;;;;10.00;8.07;;;;;;;2.86;47.80;100288.09;1807829;76;21203;-88
2021/03/07 08:25:06;;;;;;;16.00;9.07;;;;;;;2.68;48.20;100270.01;1745428;79;21308;31
2021/03/07 08:31:36;;;;;;;8.83;7.77;;;;;;;2.33;49.01;100259.52;1737882;78;21804;-91
2021/03/07 08:35:01;;;;;;;13.07;8.40;;;;;;;2.31;49.37;100262.78;1724990;79;21256;-89
2021/03/07 08:38:17;;;;;;;11.93;9.23;;;;;;;2.28;49.54;100266.98;1685622;84;21188;-90
2021/03/07 08:45:20;;;;;;;;;;;;;;;2.21;49.97;100254.05;1572894;87;291936;-88
2021/03/07 08:47:58;;;;;;;14.10;9.10;;;;;;;2.22;51.47;100254.39;1553856;85;122967;-84
2021/03/07 08:50:32;;;;;;;13.13;9.57;;;;;;;2.42;49.93;100255.25;1552131;86;241194;-81
2021/03/07 08:52:59;;;;;;;12.00;10.07;;;;;;;2.48;49.67;100243.67;1584144;86;82424;-83
2021/03/07 08:55:55;;;;;;;12.43;8.77;;;;;;;2.59;49.49;100249.29;1443601;84;5241100;-86
2021/03/07 08:58:23;;;;;;;12.77;8.80;;;;;;;2.54;49.52;100240.97;1643582;85;191242;-87
2021/03/07 09:00:56;;;;;;;12.43;9.10;;;;;;;2.53;49.43;100244.59;1663293;84;21096;-87
2021/03/07 09:03:26;;;;;;;10.97;7.70;;;;;;;2.51;49.49;100240.77;1665054;85;21164;-85
2021/03/07 09:06:10;;;;;;;11.10;8.73;;;;;;;2.50;49.74;100241.73;1633084;86;21340;-85
2021/03/07 09:08:42;;;;;;;11.43;7.53;;;;;;;2.49;49.78;100241.40;1621715;86;21203;-86
2021/03/07 09:11:12;;;;;;;10.47;8.87;;;;;;;2.51;49.75;100230.25;1622611;87;21223;-87
2021/03/07 09:14:01;;;;;;;12.43;9.00;;;;;;;2.57;49.72;100228.05;1677021;84;21164;-86
2021/03/07 09:16:44;;;;;;;14.73;9.60;;;;;;;2.51;49.81;100229.43;1651448;82;21227;-86
2021/03/07 09:19:40;;;;;;;13.10;9.07;;;;;;;2.53;49.84;100223.05;1684186;81;21540;-85
2021/03/07 09:22:58;;;;;;;11.60;9.03;;;;;;;2.51;50.01;100225.48;1653553;85;21109;-86
2021/03/07 09:25:30;;;;;;;12.47;8.07;;;;;;;2.53;50.11;100224.36;1689665;83;21173;-86
2021/03/07 09:27:57;;;;;;;11.17;8.87;;;;;;;2.56;50.08;100215.84;1672819;84;21737;-86
2021/03/07 09:30:25;;;;;;;10.47;8.83;;;;;;;2.59;50.03;100225.61;1657416;85;21387;-87
2021/03/07 09:33:04;;;;;;;8.77;7.43;;;;;;;2.60;50.09;100218.53;1650601;86;21140;-87
2021/03/07 09:35:34;;;;;;;9.83;8.73;;;;;;;2.62;49.88;100221.39;1699969;83;21678;-86
2021/03/07 09:38:08;;;;;;;11.33;8.50;;;;;;;2.55;50.10;100215.02;1676260;84;22435;-87
2021/03/07 09:40:47;;;;;;;11.43;8.30;;;;;;;2.52;50.20;100212.66;1686258;83;21278;-86
2021/03/07 09:43:16;;;;;;;10.87;9.23;;;;;;;2.47;50.43;100220.16;1697206;83;21415;-85
2021/03/07 09:45:50;;;;;;;9.67;8.37;;;;;;;2.46;50.38;100224.56;1653794;85;21731;-85
2021/03/07 09:48:21;;;;;;;12.93;8.67;;;;;;;2.40;50.52;100214.60;1677233;84;21204;-85
2021/03/07 09:51:11;;;;;;;11.27;8.87;;;;;;;2.40;50.73;100222.98;1652347;85;21309;-87
2021/03/07 09:57:22;;;;;;;10.17;8.60;;;;;;;2.36;51.03;100215.03;1660885;84;21141;-87
2021/03/07 10:00:19;;;;;;;15.30;9.00;;;;;;;2.35;50.99;100224.70;1630345;85;21242;-86
2021/03/07 10:03:33;;;;;;;12.13;9.23;;;;;;;2.37;51.19;100216.68;1650144;87;21454;-87
2021/03/07 10:06:29;;;;;;;10.03;8.40;;;;;;;2.33;51.18;100223.52;1654099;85;21188;-88
2021/03/07 10:09:33;;;;;;;11.10;8.70;;;;;;;2.34;51.35;100235.72;1684823;83;21129;-87
2021/03/07 10:16:15;;;;;;;11.67;8.43;;;;;;;2.27;51.54;100212.23;1714521;82;21164;-87
2021/03/07 10:19:12;;;;;;;13.10;9.43;;;;;;;2.27;51.58;100214.88;1696103;82;21288;-88
2021/03/07 10:22:02;;;;;;;14.97;10.23;;;;;;;2.27;51.80;100203.03;1656398;84;21171;-87
2021/03/07 10:24:30;;;;;;;9.33;7.90;;;;;;;2.34;51.65;100202.02;1671511;84;21191;-87
2021/03/07 10:27:06;;;;;;;9.70;8.77;;;;;;;2.39;51.66;100201.09;1695202;84;21168;-84
2021/03/07 10:29:36;;;;;;;11.13;9.13;;;;;;;2.44;51.42;100196.25;1713193;82;21172;-84
2021/03/07 10:32:19;;;;;;;11.67;9.57;;;;;;;2.47;51.45;100191.22;1678538;84;21247;-84
2021/03/07 10:34:53;;;;;;;12.17;8.83;;;;;;;2.49;51.28;100190.09;1712706;83;21061;-84
2021/03/07 10:37:36;;;;;;;8.93;8.03;;;;;;;2.49;51.42;100183.52;1683832;84;21307;-84
2021/03/07 10:40:06;;;;;;;11.33;7.90;;;;;;;2.50;51.31;100177.27;1705404;83;21298;-84
2021/03/07 10:42:36;;;;;;;17.03;9.97;;;;;;;2.41;51.57;100169.39;1710646;83;21626;-83
2021/03/07 10:45:23;;;;;;;15.97;11.30;;;;;;;2.38;51.54;100167.88;1713127;82;21064;-84
2021/03/07 10:48:09;;;;;;;13.53;8.98;;;;;;;2.39;51.72;100158.18;1704380;83;21152;-84
2021/03/07 10:50:44;;;;;;;11.27;8.43;;;;;;;2.47;51.62;100163.09;1700079;83;21178;-85
2021/03/07 10:53:12;;;;;;;11.97;8.67;;;;;;;2.46;51.75;100148.27;1703261;82;21217;-82
2021/03/07 10:55:39;;;;;;;11.57;9.70;;;;;;;2.50;51.65;100150.95;1653118;85;21266;-84
2021/03/07 10:58:08;;;;;;;10.33;8.77;;;;;;;2.56;51.62;100138.22;1659269;85;21438;-84
2021/03/07 11:00:35;;;;;;;10.30;9.13;;;;;;;2.63;51.46;100139.31;1696128;84;21238;-83
2021/03/07 11:03:02;;;;;;;12.77;9.97;;;;;;;2.72;51.46;100134.52;1664321;84;22734;-84
2021/03/07 11:05:30;;;;;;;13.17;9.63;;;;;;;2.77;51.36;100133.62;1681422;84;21191;-84
2021/03/07 11:07:57;;;;;;;11.70;10.03;;;;;;;2.86;51.13;100131.45;1649456;85;21228;-84
2021/03/07 11:10:25;;;;;;;11.53;8.53;;;;;;;2.89;50.96;100131.14;1670741;84;21203;-82
2021/03/07 11:12:52;;;;;;;10.23;8.20;;;;;;;2.90;50.96;100126.23;1662805;84;21084;-83
2021/03/07 11:15:21;;;;;;;10.17;9.03;;;;;;;2.87;50.94;100125.19;1658069;84;21198;-79
2021/03/07 11:17:48;;;;;;;9.37;8.10;;;;;;;2.89;51.03;100132.45;1685561;84;21156;-84
2021/03/07 11:20:16;;;;;;;11.47;8.43;;;;;;;2.91;50.98;100118.66;1682738;84;21223;-82
2021/03/07 11:22:43;;;;;;;8.73;7.87;;;;;;;2.92;51.01;100120.33;1647097;85;21567;-83
2021/03/07 11:25:10;;;;;;;11.50;8.27;;;;;;;2.94;50.91;100114.92;1658455;84;21345;-83
2021/03/07 11:27:37;;;;;;;12.07;7.70;;;;;;;2.90;50.93;100111.75;1678831;84;21171;-82
2021/03/07 11:30:05;;;;;;;14.00;8.40;;;;;;;2.84;50.84;100122.02;1686841;84;21322;-83
2021/03/07 11:32:33;;;;;;;9.93;8.37;;;;;;;2.74;51.09;100115.47;1671647;84;21188;-81
2021/03/07 11:35:00;;;;;;;11.10;7.77;;;;;;;2.70;51.21;100103.08;1683325;84;21257;-83
2021/03/07 11:37:27;;;;;;;9.37;8.10;;;;;;;2.65;51.41;100099.22;1680433;84;21264;-83
2021/03/07 11:39:54;;;;;;;12.87;8.03;;;;;;;2.64;51.42;100084.41;1683567;84;21151;-83
2021/03/07 11:42:23;;;;;;;9.87;8.17;;;;;;;2.62;51.55;100089.81;1625137;87;21349;-83
2021/03/07 11:44:50;;;;;;;11.90;8.23;;;;;;;2.68;51.61;100086.60;1660638;84;21111;-83
2021/03/07 11:47:18;;;;;;;17.93;9.33;;;;;;;2.71;51.69;100082.84;1648569;85;21343;-82
2021/03/07 11:49:45;;;;;;;10.10;7.37;;;;;;;2.75;51.62;100076.81;1679991;84;21534;-82
2021/03/07 11:52:12;;;;;;;11.97;7.30;;;;;;;2.75;51.45;100059.70;1651464;85;21206;-81
2021/03/07 11:54:39;;;;;;;11.80;6.97;;;;;;;2.76;51.54;100066.64;1677826;84;21195;-83
2021/03/07 11:57:06;;;;;;;10.03;8.53;;;;;;;2.76;51.33;100064.00;1625160;85;21123;-83
2021/03/07 11:59:35;;;;;;;8.77;7.67;;;;;;;2.77;51.41;100063.02;1648030;85;21209;-83
2021/03/07 12:02:02;;;;;;;11.30;9.83;;;;;;;2.80;51.23;100056.16;1655534;84;21111;-84
2021/03/07 12:04:29;;;;;;;10.47;8.03;;;;;;;2.81;51.30;100045.48;1689283;83;21639;-84
2021/03/07 12:06:57;;;;;;;8.47;7.07;;;;;;;2.86;50.90;100042.41;1691246;83;21335;-83
2021/03/07 12:09:24;;;;;;;10.03;9.07;;;;;;;2.82;50.91;100044.50;1692208;83;21196;-85
2021/03/07 12:11:52;;;;;;;12.77;6.93;;;;;;;2.83;51.05;100050.61;1675312;83;21120;-83
2021/03/07 12:14:19;;;;;;;11.67;8.80;;;;;;;2.84;50.91;100051.76;1669848;84;21140;-83
2021/03/07 12:16:46;;;;;;;9.60;8.50;;;;;;;2.84;50.94;100038.59;1665489;84;21232;-83
2021/03/07 12:19:13;;;;;;;11.67;7.37;;;;;;;2.83;50.86;100047.98;1664341;84;21172;-82
2021/03/07 12:21:40;;;;;;;12.17;8.13;;;;;;;2.79;51.10;100048.75;1615668;87;21195;-83
2021/03/07 12:24:08;;;;;;;11.13;7.90;;;;;;;2.76;51.33;100040.31;1667894;84;21112;-85
2021/03/07 12:26:35;;;;;;;11.47;7.47;;;;;;;2.79;51.28;100039.54;1669730;85;21513;-83
2021/03/07 12:29:04;;;;;;;7.17;6.43;;;;;;;2.80;51.27;100045.13;1670892;84;21164;-83
2021/03/07 12:31:32;;;;;;;12.33;8.13;;;;;;;2.83;51.13;100047.48;1645668;85;21381;-83
2021/03/07 12:34:03;;;;;;;9.40;7.43;;;;;;;2.84;51.09;100046.98;1641694;85;21730;-82
2021/03/07 12:36:30;;;;;;;8.70;6.83;;;;;;;2.84;51.16;100035.97;1642505;86;21628;-84
2021/03/07 12:38:59;;;;;;;8.37;7.13;;;;;;;2.86;51.40;100019.56;1645223;85;21361;-83
2021/03/07 12:41:29;;;;;;;8.63;7.83;;;;;;;2.89;51.21;100025.02;1645733;85;21220;-81
2021/03/07 12:44:07;;;;;;;14.53;8.97;;;;;;;2.91;51.19;100017.30;1643676;85;21198;-83
2021/03/07 12:46:34;;;;;;;8.43;7.43;;;;;;;2.91;51.19;100008.08;1643019;86;21231;-81
2021/03/07 12:49:06;;;;;;;8.43;7.47;;;;;;;2.98;51.27;100019.37;1644845;87;21332;-84
2021/03/07 12:51:36;;;;;;;11.20;6.93;;;;;;;3.01;51.28;100011.16;1634290;85;22348;-82
2021/03/07 12:54:04;;;;;;;10.93;7.00;;;;;;;3.05;51.09;100012.52;1618981;88;21227;-83
2021/03/07 12:56:32;;;;;;;12.60;8.20;;;;;;;3.07;51.10;100003.97;1641200;86;21363;-84
2021/03/07 12:59:13;;;;;;;9.13;7.90;;;;;;;3.07;51.09;100007.92;1614878;88;21217;-85
2021/03/07 13:01:40;;;;;;;8.20;7.40;;;;;;;3.05;51.13;100007.24;1646779;84;21766;-84
2021/03/07 13:04:07;;;;;;;19.63;8.60;;;;;;;2.99;51.45;99998.63;1626488;84;108780;-83
2021/03/07 13:06:34;;;;;;;12.27;9.50;;;;;;;2.94;51.40;99991.19;1604481;87;21365;-82
2021/03/07 13:09:01;;;;;;;9.67;8.30;;;;;;;2.92;51.57;99993.96;1601902;87;21251;-83
2021/03/07 13:11:28;;;;;;;8.70;7.90;;;;;;;2.89;51.72;99987.66;1607465;86;21119;-83